createdAt,value
2018-07-06T00:01:27.430Z,303.63
2018-07-06T00:04:07.250Z,343.33
2018-07-06T00:06:47.171Z,358.00
2018-07-06T00:09:27.001Z,340.40
2018-07-06T00:12:06.664Z,337.23
2018-07-06T00:14:46.365Z,329.10
2018-07-06T00:17:26.035Z,341.17
2018-07-06T00:20:06.072Z,341.53
2018-07-06T00:22:45.800Z,344.87
2018-07-06T00:25:25.504Z,348.20
2018-07-06T00:28:05.276Z,335.73
2018-07-06T00:30:44.967Z,339.67
2018-07-06T00:33:24.858Z,349.03
2018-07-06T00:35:58.619Z,341.80
2018-07-06T00:38:38.512Z,325.77
2018-07-06T00:41:12.211Z,338.83
2018-07-06T00:43:52.076Z,350.47
2018-07-06T00:46:31.709Z,350.67
2018-07-06T00:49:11.410Z,330.30
2018-07-06T00:51:51.213Z,344.53
2018-07-06T00:54:30.919Z,338.63
2018-07-06T00:57:10.792Z,326.77
2018-07-06T00:59:50.702Z,351.47
2018-07-06T01:02:30.521Z,352.73
2018-07-06T01:05:10.219Z,332.20
2018-07-06T01:07:50.056Z,355.70
2018-07-06T01:10:29.704Z,339.70
2018-07-06T01:13:09.404Z,332.17
2018-07-06T01:15:49.111Z,354.07
2018-07-06T01:18:22.822Z,339.70
2018-07-06T01:21:02.625Z,338.50
2018-07-06T01:23:42.496Z,331.97
2018-07-06T01:26:22.398Z,342.53
2018-07-06T01:29:02.096Z,344.57
2018-07-06T01:31:41.864Z,330.83
2018-07-06T01:34:21.750Z,345.60
2018-07-06T01:37:01.640Z,326.90
2018-07-06T01:39:41.460Z,294.40
2018-07-06T01:42:21.244Z,225.00
2018-07-06T01:45:01.037Z,192.50
2018-07-06T01:47:40.744Z,186.53
2018-07-06T01:50:20.593Z,182.27
2018-07-06T01:53:00.368Z,173.77
2018-07-06T01:55:40.154Z,149.13
2018-07-06T01:58:19.987Z,126.40
2018-07-06T02:00:59.724Z,191.80
2018-07-06T02:03:39.385Z,229.63
2018-07-06T02:06:19.191Z,259.57
2018-07-06T02:08:58.901Z,245.97
2018-07-06T02:11:38.548Z,296.07
2018-07-06T02:14:18.130Z,299.97
2018-07-06T02:16:57.901Z,352.07
2018-07-06T02:19:37.734Z,389.53
2018-07-06T02:22:17.512Z,438.00
2018-07-06T02:24:57.201Z,422.93
2018-07-06T02:27:37.041Z,430.53
2018-07-06T02:30:10.907Z,425.63
2018-07-06T02:32:50.829Z,365.30
2018-07-06T02:35:30.585Z,384.17
2018-07-06T02:38:10.550Z,370.43
2018-07-06T02:40:50.431Z,313.67
2018-07-06T02:43:30.076Z,345.83
2018-07-06T02:46:09.757Z,310.50
2018-07-06T02:48:49.501Z,328.83
2018-07-06T02:51:29.405Z,325.53
2018-07-06T02:54:09.297Z,298.13
2018-07-06T02:56:49.064Z,308.00
2018-07-06T02:59:28.806Z,313.93
2018-07-06T03:02:08.690Z,350.97
2018-07-06T03:04:48.604Z,312.70
2018-07-06T03:07:28.306Z,310.10
2018-07-06T03:10:08.096Z,269.57
2018-07-06T03:12:47.861Z,284.37
2018-07-06T03:15:27.600Z,227.03
2018-07-06T03:18:07.360Z,252.53
2018-07-06T03:20:47.254Z,242.93
2018-07-06T03:23:27.024Z,221.27
2018-07-06T03:26:06.906Z,220.40
2018-07-06T03:28:47.048Z,190.00
2018-07-06T03:31:26.683Z,203.83
2018-07-06T03:34:06.573Z,187.87
2018-07-06T03:36:46.485Z,188.33
2018-07-06T03:39:26.198Z,188.97
2018-07-06T03:41:59.873Z,509.83
2018-07-06T03:44:39.693Z,209.10
2018-07-06T03:47:19.577Z,275.87
2018-07-06T03:49:59.279Z,309.07
2018-07-06T03:52:39.123Z,367.63
2018-07-06T03:55:21.367Z,380.03
2018-07-06T03:58:02.338Z,370.43
2018-07-06T04:00:42.021Z,364.33
2018-07-06T04:03:15.716Z,375.13
2018-07-06T04:05:55.415Z,382.33
2018-07-06T04:08:35.085Z,350.67
2018-07-06T04:11:14.813Z,342.77
2018-07-06T04:13:54.637Z,325.33
2018-07-06T04:16:34.467Z,333.90
2018-07-06T04:19:14.341Z,326.53
2018-07-06T04:21:54.988Z,326.20
2018-07-06T04:24:34.840Z,317.20
2018-07-06T04:27:14.681Z,331.87
2018-07-06T04:29:54.549Z,330.63
2018-07-06T04:32:34.451Z,308.67
2018-07-06T04:35:14.124Z,347.63
2018-07-06T04:37:53.952Z,341.23
2018-07-06T04:40:33.795Z,343.03
2018-07-06T04:43:13.673Z,334.40
2018-07-06T04:45:53.548Z,338.03
2018-07-06T04:48:33.468Z,341.90
2018-07-06T04:51:13.372Z,318.00
2018-07-06T04:53:53.200Z,342.83
2018-07-06T04:56:33.022Z,357.57
2018-07-06T04:59:12.802Z,325.40
2018-07-06T05:01:52.506Z,324.53
2018-07-06T05:04:32.356Z,301.47
2018-07-06T05:07:12.271Z,271.53
2018-07-06T05:09:52.065Z,285.80
2018-07-06T05:12:31.825Z,276.47
2018-07-06T05:15:11.560Z,259.57
2018-07-06T05:17:51.381Z,258.90
2018-07-06T05:20:31.298Z,252.93
2018-07-06T05:23:11.136Z,280.77
2018-07-06T05:25:50.988Z,206.03
2018-07-06T05:28:30.731Z,266.70
2018-07-06T05:31:10.504Z,276.40
2018-07-06T05:33:50.380Z,275.70
2018-07-06T05:36:30.155Z,285.10
2018-07-06T05:39:09.839Z,267.70
2018-07-06T05:41:49.661Z,292.60
2018-07-06T05:44:29.431Z,298.13
2018-07-06T05:47:09.141Z,282.93
2018-07-06T05:49:48.904Z,302.27
2018-07-06T05:52:28.745Z,273.90
2018-07-06T05:55:08.448Z,257.90
2018-07-06T05:57:48.330Z,320.30
2018-07-06T06:00:28.165Z,314.40
2018-07-06T06:03:07.988Z,338.33
2018-07-06T06:05:47.755Z,315.30
2018-07-06T06:08:15.236Z,361.90
2018-07-06T06:10:43.848Z,322.70
2018-07-06T06:13:12.381Z,334.70
2018-07-06T06:15:40.949Z,335.57
2018-07-06T06:18:09.582Z,333.03
2018-07-06T06:20:38.196Z,324.80
2018-07-06T06:23:06.850Z,423.37
2018-07-06T06:25:35.461Z,328.00
2018-07-06T06:28:04.068Z,307.27
2018-07-06T06:30:32.712Z,323.80
2018-07-06T06:33:01.409Z,295.33
2018-07-06T06:35:30.069Z,314.47
2018-07-06T06:37:58.727Z,328.87
2018-07-06T06:40:27.520Z,312.10
2018-07-06T06:42:56.164Z,320.57
2018-07-06T06:45:24.864Z,331.17
2018-07-06T06:47:53.644Z,335.57
2018-07-06T06:50:22.287Z,326.97
2018-07-06T06:52:50.955Z,371.90
2018-07-06T06:55:19.533Z,411.23
2018-07-06T06:57:48.197Z,415.83
2018-07-06T07:00:21.055Z,424.33
2018-07-06T07:02:45.204Z,431.70
2018-07-06T07:05:13.816Z,447.07
2018-07-06T07:07:42.598Z,446.70
2018-07-06T07:10:11.170Z,450.17
2018-07-06T07:12:39.804Z,430.03
2018-07-06T07:15:08.413Z,441.27
2018-07-06T07:17:37.086Z,403.93
2018-07-06T07:20:05.338Z,405.70
2018-07-06T07:22:34.001Z,302.63
2018-07-06T07:25:02.690Z,316.63
2018-07-06T07:27:31.528Z,349.80
2018-07-06T07:29:59.930Z,385.37
2018-07-06T07:32:28.597Z,383.60
2018-07-06T07:34:56.899Z,429.33
2018-07-06T07:37:25.575Z,426.33
2018-07-06T07:39:54.255Z,484.67
2018-07-06T07:42:22.928Z,478.97
2018-07-06T07:44:51.564Z,490.03
2018-07-06T07:47:20.213Z,478.63
2018-07-06T07:49:48.848Z,509.27
2018-07-06T07:52:28.725Z,540.77
2018-07-06T07:54:57.455Z,533.63
2018-07-06T07:57:26.146Z,554.40
2018-07-06T07:59:55.756Z,565.40
2018-07-06T08:02:24.478Z,600.40
2018-07-06T08:04:53.956Z,574.37
2018-07-06T08:07:22.660Z,577.10
2018-07-06T08:09:51.381Z,578.70
2018-07-06T08:12:19.971Z,613.83
2018-07-06T08:14:49.024Z,602.27
2018-07-06T08:17:17.631Z,592.93
2018-07-06T08:19:46.570Z,610.83
2018-07-06T08:22:15.191Z,607.63
2018-07-06T08:24:43.897Z,582.77
2018-07-06T08:27:12.507Z,588.87
2018-07-06T08:29:41.101Z,577.87
2018-07-06T08:32:09.696Z,559.13
2018-07-06T08:34:49.608Z,577.80
2018-07-06T08:37:37.319Z,546.60
2018-07-06T08:40:07.017Z,541.60
2018-07-06T08:42:37.728Z,508.10
2018-07-06T08:45:06.695Z,559.77
2018-07-06T08:47:35.695Z,544.60
2018-07-06T08:50:05.207Z,516.97
2018-07-06T08:52:34.565Z,485.67
2018-07-06T08:55:03.201Z,417.13
2018-07-06T08:57:32.595Z,372.27
2018-07-06T09:00:01.370Z,255.43
2018-07-06T09:02:30.087Z,239.80
2018-07-06T09:04:59.578Z,244.37
2018-07-06T09:07:28.184Z,331.57
2018-07-06T09:09:57.505Z,305.37
2018-07-06T09:12:26.131Z,313.37
2018-07-06T09:14:54.676Z,344.43
2018-07-06T09:17:23.747Z,373.63
2018-07-06T09:19:53.247Z,391.03
2018-07-06T09:22:21.678Z,360.67
2018-07-06T09:24:52.384Z,373.87
2018-07-06T09:27:21.036Z,322.80
2018-07-06T09:29:49.644Z,290.07
2018-07-06T09:32:18.294Z,323.87
2018-07-06T09:34:46.882Z,282.50
2018-07-06T09:37:15.564Z,217.80
2018-07-06T09:39:44.732Z,158.20
2018-07-06T09:42:13.779Z,136.03
2018-07-06T09:44:42.465Z,127.30
2018-07-06T09:47:11.090Z,159.87
2018-07-06T09:49:39.803Z,122.37
2018-07-06T09:52:08.061Z,130.40
2018-07-06T09:54:36.732Z,143.53
2018-07-06T09:57:05.386Z,166.43
2018-07-06T09:59:34.048Z,343.23
2018-07-06T10:02:02.805Z,170.93
2018-07-06T10:04:31.451Z,143.53
2018-07-06T10:07:00.194Z,188.07
2018-07-06T10:09:28.824Z,242.53
2018-07-06T10:11:57.608Z,268.23
2018-07-06T10:14:26.252Z,206.37
2018-07-06T10:16:54.874Z,289.83
2018-07-06T10:19:23.488Z,488.52
2018-07-06T10:21:52.083Z,290.33
2018-07-06T10:24:20.734Z,339.00
2018-07-06T10:26:49.299Z,480.30
2018-07-06T10:29:53.428Z,367.73
2018-07-06T10:32:23.346Z,557.53
2018-07-06T10:34:51.958Z,581.90
2018-07-06T10:37:21.028Z,540.13
2018-07-06T10:39:50.223Z,440.30
2018-07-06T10:42:18.701Z,320.20
2018-07-06T10:44:47.317Z,515.83
2018-07-06T10:47:16.036Z,554.60
2018-07-06T10:49:44.832Z,481.20
2018-07-06T10:52:14.385Z,525.27
2018-07-06T10:54:45.649Z,608.53
2018-07-06T10:57:24.808Z,538.57
2018-07-06T11:00:01.059Z,404.93
2018-07-06T11:02:36.910Z,358.73
2018-07-06T11:05:17.569Z,332.50
2018-07-06T11:07:55.271Z,266.67
2018-07-06T11:10:32.188Z,425.77
2018-07-06T11:13:14.430Z,194.60
2018-07-06T11:15:56.112Z,113.40
2018-07-06T11:18:34.997Z,160.50
2018-07-06T11:21:12.110Z,203.40
2018-07-06T11:23:51.554Z,74.73
2018-07-06T11:26:20.203Z,48.30
2018-07-06T11:28:48.784Z,42.43
2018-07-06T11:31:17.384Z,48.07
2018-07-06T11:33:45.941Z,48.10
2018-07-06T11:36:14.630Z,52.97
2018-07-06T11:38:43.230Z,61.60
2018-07-06T11:41:12.568Z,55.20
2018-07-06T11:43:40.826Z,152.30
2018-07-06T11:46:09.452Z,108.93
2018-07-06T11:48:38.082Z,158.50
2018-07-06T11:51:13.041Z,177.77
2018-07-06T11:54:01.555Z,142.63
2018-07-06T11:56:39.969Z,191.70
2018-07-06T11:59:19.279Z,142.93
2018-07-06T12:02:03.551Z,157.77
2018-07-06T12:04:40.858Z,106.60
2018-07-06T12:07:16.238Z,83.17
2018-07-06T12:09:54.693Z,122.20
2018-07-06T12:12:26.669Z,129.67
2018-07-06T12:14:58.258Z,138.95
2018-07-06T12:17:26.895Z,120.77
2018-07-06T12:19:55.459Z,79.27
2018-07-06T12:22:24.052Z,63.80
2018-07-06T12:24:52.622Z,52.00
2018-07-06T12:27:21.206Z,60.13
2018-07-06T12:29:49.810Z,57.20
2018-07-06T12:32:18.367Z,56.07
2018-07-06T12:34:46.940Z,35.10
2018-07-06T12:37:15.593Z,36.50
2018-07-06T12:39:44.160Z,32.70
2018-07-06T12:42:12.919Z,36.73
2018-07-06T12:44:41.717Z,26.27
2018-07-06T12:47:10.274Z,34.33
2018-07-06T12:49:38.550Z,30.43
2018-07-06T12:52:07.152Z,24.87
2018-07-06T12:54:35.888Z,28.37
2018-07-06T12:57:04.725Z,73.90
2018-07-06T12:59:34.034Z,71.17
2018-07-06T13:02:02.661Z,47.80
2018-07-06T13:04:31.188Z,47.70
2018-07-06T13:06:59.801Z,47.03
2018-07-06T13:09:28.330Z,48.57
2018-07-06T13:11:56.913Z,48.40
2018-07-06T13:14:25.501Z,47.63
2018-07-06T13:16:54.121Z,47.80
2018-07-06T13:19:22.743Z,50.60
2018-07-06T13:21:51.321Z,38.43
2018-07-06T13:24:19.920Z,48.20
2018-07-06T13:26:48.481Z,45.77
2018-07-06T13:29:17.103Z,42.23
2018-07-06T13:31:45.684Z,38.93
2018-07-06T13:34:14.468Z,43.70
2018-07-06T13:36:43.189Z,37.90
2018-07-06T13:39:11.759Z,40.33
2018-07-06T13:41:40.491Z,43.40
2018-07-06T13:44:09.091Z,40.07
2018-07-06T13:46:37.646Z,38.83
2018-07-06T13:49:06.272Z,50.37
2018-07-06T13:51:34.910Z,54.93
2018-07-06T13:54:03.522Z,76.70
2018-07-06T13:56:32.071Z,83.23
2018-07-06T13:59:00.683Z,71.57
2018-07-06T14:01:29.249Z,74.87
2018-07-06T14:03:57.857Z,68.77
2018-07-06T14:06:26.392Z,42.03
2018-07-06T14:08:54.616Z,61.13
2018-07-06T14:11:23.211Z,76.63
2018-07-06T14:13:51.761Z,77.73
2018-07-06T14:16:20.408Z,74.30
2018-07-06T14:18:48.971Z,64.23
2018-07-06T14:21:17.607Z,69.70
2018-07-06T14:23:45.841Z,81.03
2018-07-06T14:26:14.565Z,76.27
2018-07-06T14:28:43.149Z,48.90
2018-07-06T14:31:11.731Z,69.87
2018-07-06T14:33:39.986Z,63.63
2018-07-06T14:36:08.641Z,57.93
2018-07-06T14:38:37.265Z,61.70
2018-07-06T14:41:05.887Z,70.87
2018-07-06T14:43:34.095Z,66.13
2018-07-06T14:46:03.027Z,56.87
2018-07-06T14:48:31.617Z,50.03
2018-07-06T14:50:59.861Z,54.17
2018-07-06T14:53:28.467Z,48.43
2018-07-06T14:55:57.360Z,26.60
2018-07-06T14:58:26.516Z,39.23
2018-07-06T15:00:55.263Z,39.80
2018-07-06T15:03:24.152Z,26.47
2018-07-06T15:05:52.706Z,12.13
2018-07-06T15:08:21.329Z,13.87
2018-07-06T15:10:49.896Z,20.77
2018-07-06T15:13:18.557Z,22.10
2018-07-06T15:15:47.135Z,11.33
2018-07-06T15:18:15.795Z,12.20
2018-07-06T15:20:44.460Z,12.37
2018-07-06T15:23:13.085Z,13.07
2018-07-06T15:25:41.623Z,12.27
2018-07-06T15:28:09.943Z,14.13
2018-07-06T15:30:38.505Z,14.07
2018-07-06T15:33:07.065Z,14.60
2018-07-06T15:35:36.385Z,13.10
2018-07-06T15:38:04.976Z,12.20
2018-07-06T15:40:33.593Z,23.87
2018-07-06T15:43:02.164Z,20.43
2018-07-06T15:45:30.820Z,17.83
2018-07-06T15:47:59.400Z,14.57
2018-07-06T15:50:28.045Z,14.50
2018-07-06T15:52:56.593Z,13.90
2018-07-06T15:55:25.207Z,15.60
2018-07-06T15:57:53.805Z,18.07
2018-07-06T16:00:22.982Z,25.67
2018-07-06T16:02:51.601Z,33.50
2018-07-06T16:05:19.836Z,45.73
2018-07-06T16:07:48.425Z,30.77
2018-07-06T16:10:17.648Z,25.90
2018-07-06T16:12:46.475Z,19.13
2018-07-06T16:15:15.057Z,26.23
2018-07-06T16:17:43.632Z,29.80
2018-07-06T16:20:12.436Z,29.13
2018-07-06T16:22:42.356Z,35.47
2018-07-06T16:25:12.096Z,35.50
2018-07-06T16:27:40.682Z,37.63
2018-07-06T16:30:09.291Z,57.60
2018-07-06T16:32:37.919Z,57.00
2018-07-06T16:35:06.876Z,57.57
2018-07-06T16:37:35.828Z,59.83
2018-07-06T16:40:04.408Z,60.50
2018-07-06T16:42:32.997Z,55.27
2018-07-06T16:45:01.816Z,55.63
2018-07-06T16:47:30.416Z,44.80
2018-07-06T16:49:58.752Z,39.07
2018-07-06T16:52:27.311Z,34.03
2018-07-06T16:54:55.991Z,46.37
2018-07-06T16:57:24.580Z,49.00
2018-07-06T16:59:53.527Z,51.90
2018-07-06T17:02:22.146Z,53.40
2018-07-06T17:04:50.740Z,47.17
2018-07-06T17:07:19.386Z,37.23
2018-07-06T17:09:48.086Z,29.63
2018-07-06T17:12:16.702Z,21.73
2018-07-06T17:14:45.294Z,28.83
2018-07-06T17:17:13.958Z,23.27
2018-07-06T17:19:42.529Z,17.80
2018-07-06T17:22:11.124Z,14.27
2018-07-06T17:24:39.914Z,12.30
2018-07-06T17:27:08.558Z,13.27
2018-07-06T17:29:37.199Z,15.03
2018-07-06T17:32:05.962Z,30.40
2018-07-06T17:34:34.691Z,49.67
2018-07-06T17:37:03.669Z,56.07
2018-07-06T17:39:32.250Z,48.37
2018-07-06T17:42:00.885Z,32.27
2018-07-06T17:44:29.475Z,22.33
2018-07-06T17:46:58.106Z,20.13
2018-07-06T17:49:26.720Z,23.33
2018-07-06T17:51:55.343Z,26.57
2018-07-06T17:54:23.928Z,26.10
2018-07-06T17:56:52.512Z,20.80
2018-07-06T17:59:21.094Z,20.47
2018-07-06T18:01:49.678Z,19.77
2018-07-06T18:04:18.317Z,17.40
2018-07-06T18:06:46.859Z,14.40
2018-07-06T18:09:15.187Z,14.23
2018-07-06T18:11:43.785Z,19.50
2018-07-06T18:14:12.415Z,23.73
2018-07-06T18:16:41.069Z,31.07
2018-07-06T18:19:10.026Z,49.07
2018-07-06T18:21:38.794Z,79.77
2018-07-06T18:24:07.609Z,114.97
2018-07-06T18:26:36.572Z,128.00
2018-07-06T18:29:06.053Z,131.30
2018-07-06T18:31:34.697Z,120.33
2018-07-06T18:34:03.338Z,123.67
2018-07-06T18:36:31.597Z,122.83
2018-07-06T18:39:00.264Z,114.63
2018-07-06T18:41:28.903Z,103.13
2018-07-06T18:43:57.501Z,102.47
2018-07-06T18:46:26.100Z,106.87
2018-07-06T18:48:54.638Z,159.80
2018-07-06T18:51:23.331Z,250.87
2018-07-06T18:53:51.876Z,316.00
2018-07-06T18:56:20.464Z,313.60
2018-07-06T18:58:48.705Z,378.80
2018-07-06T19:01:17.362Z,379.90
2018-07-06T19:03:45.616Z,425.77
2018-07-06T19:06:14.181Z,425.17
2018-07-06T19:08:42.764Z,420.73
2018-07-06T19:11:11.359Z,455.50
2018-07-06T19:13:39.945Z,400.07
2018-07-06T19:16:08.652Z,402.47
2018-07-06T19:18:37.268Z,382.83
2018-07-06T19:21:05.860Z,375.37
2018-07-06T19:23:34.470Z,322.70
2018-07-06T19:26:03.052Z,285.67
2018-07-06T19:28:31.705Z,256.10
2018-07-06T19:31:00.368Z,187.43
2018-07-06T19:33:28.870Z,188.10
2018-07-06T19:35:57.483Z,168.53
2018-07-06T19:38:26.093Z,132.80
2018-07-06T19:40:54.824Z,91.83
2018-07-06T19:43:23.372Z,87.07
2018-07-06T19:45:52.024Z,97.10
2018-07-06T19:48:20.747Z,83.10
2018-07-06T19:50:49.336Z,98.47
2018-07-06T19:53:17.953Z,118.97
2018-07-06T19:55:46.505Z,123.60
2018-07-06T19:58:15.151Z,120.80
2018-07-06T20:00:43.763Z,110.03
2018-07-06T20:03:12.406Z,112.10
2018-07-06T20:05:41.190Z,102.67
2018-07-06T20:08:09.827Z,117.80
2018-07-06T20:10:38.448Z,111.10
2018-07-06T20:13:07.205Z,126.47
2018-07-06T20:15:35.840Z,141.57
2018-07-06T20:18:04.584Z,148.10
2018-07-06T20:20:33.301Z,160.10
2018-07-06T20:23:01.836Z,152.53
2018-07-06T20:25:30.457Z,117.63
2018-07-06T20:27:59.022Z,126.33
2018-07-06T20:30:27.641Z,128.07
2018-07-06T20:32:56.191Z,134.13
2018-07-06T20:35:24.940Z,165.90
2018-07-06T20:37:53.620Z,172.30
2018-07-06T20:40:22.231Z,218.50
2018-07-06T20:42:50.789Z,230.00
2018-07-06T20:45:19.387Z,217.77
2018-07-06T20:47:48.112Z,188.47
2018-07-06T20:50:16.376Z,184.53
2018-07-06T20:52:44.959Z,175.27
2018-07-06T20:55:13.576Z,181.03
2018-07-06T20:57:41.803Z,207.47
2018-07-06T21:00:10.477Z,206.53
2018-07-06T21:02:39.074Z,194.30
2018-07-06T21:05:07.662Z,183.77
2018-07-06T21:07:36.196Z,195.73
2018-07-06T21:10:04.832Z,180.33
2018-07-06T21:12:33.568Z,176.00
2018-07-06T21:15:02.093Z,206.80
2018-07-06T21:17:30.628Z,223.13
2018-07-06T21:19:59.209Z,241.33
2018-07-06T21:22:27.433Z,260.63
2018-07-06T21:24:56.212Z,269.70
2018-07-06T21:27:24.857Z,272.60
2018-07-06T21:29:53.411Z,319.97
2018-07-06T21:32:21.960Z,320.93
2018-07-06T21:34:50.514Z,349.23
2018-07-06T21:37:19.075Z,352.10
2018-07-06T21:39:47.612Z,365.40
2018-07-06T21:42:16.178Z,336.67
2018-07-06T21:44:44.885Z,370.67
2018-07-06T21:47:13.423Z,336.03
2018-07-06T21:49:42.308Z,322.63
2018-07-06T21:52:11.322Z,318.10
2018-07-06T21:54:40.151Z,291.93
2018-07-06T21:57:08.717Z,281.77
2018-07-06T21:59:39.309Z,266.70
2018-07-06T22:02:12.773Z,262.67
2018-07-06T22:04:41.713Z,238.10
2018-07-06T22:07:11.684Z,236.37
2018-07-06T22:09:41.058Z,253.17
2018-07-06T22:12:09.710Z,253.33
2018-07-06T22:14:38.321Z,264.87
2018-07-06T22:17:08.004Z,276.47
2018-07-06T22:19:37.547Z,273.33
2018-07-06T22:22:06.493Z,267.20
2018-07-06T22:24:35.151Z,211.17
2018-07-06T22:27:03.774Z,244.17
2018-07-06T22:29:32.055Z,252.57
2018-07-06T22:32:00.754Z,246.43
2018-07-06T22:34:29.896Z,276.73
2018-07-06T22:36:58.708Z,276.20
2018-07-06T22:39:27.410Z,272.60
2018-07-06T22:41:56.698Z,264.00
2018-07-06T22:44:25.377Z,275.17
2018-07-06T22:46:54.342Z,261.80
2018-07-06T22:49:23.106Z,267.97
2018-07-06T22:51:55.066Z,244.97
2018-07-06T22:54:24.714Z,285.93
2018-07-06T22:56:53.648Z,283.00
2018-07-06T22:59:22.655Z,325.10
2018-07-06T23:01:51.249Z,315.00
2018-07-06T23:04:19.765Z,332.83
2018-07-06T23:06:48.331Z,332.93
2018-07-06T23:09:16.961Z,353.50
2018-07-06T23:11:45.501Z,380.23
2018-07-06T23:14:14.046Z,404.63
2018-07-06T23:16:42.236Z,386.10
2018-07-06T23:19:10.818Z,364.57
2018-07-06T23:21:39.324Z,367.60
2018-07-06T23:24:07.917Z,393.70
2018-07-06T23:26:36.529Z,395.00
2018-07-06T23:29:05.118Z,369.97
2018-07-06T23:31:33.619Z,379.10
2018-07-06T23:34:02.187Z,400.23
2018-07-06T23:36:30.688Z,383.97
2018-07-06T23:38:58.945Z,384.70
2018-07-06T23:41:27.515Z,390.30
2018-07-06T23:43:56.043Z,409.20
2018-07-06T23:46:24.608Z,399.30
2018-07-06T23:48:53.332Z,402.13
2018-07-06T23:51:21.879Z,402.47
2018-07-06T23:53:50.454Z,390.60
2018-07-06T23:56:19.020Z,409.97
2018-07-06T23:58:47.586Z,398.53
